Flora, IL

11:28 PM CST am 11. Februar 2016 (GMT -0600)
Flora Municipal | | Change Station
CLOSE
Current Station
Flughafen
Location: Flora,
Höhe: 472 ft
Wetterstationen in der Umgebung

Höhe 472 ft 38.67 °N, 88.45 °W | Updated 13 minutes ago

Bedeckt
Bedeckt
27 °F
gefühlte 22 °F
N
5
Wind Wechselnd Wind aus Ost

Heute
Max. -- | schwach -- °F
--% Regenrisiko
Gestern
Max. -- | schwach -- °F
Precip. -- inch
Druck 30.27 inch
Sichtweite 10.0 Meilen
Wolken Wolkig 8000 ft
Bedeckt 9000 ft
Windchill 22 °F
Taupunkt 14 °F
Feuchtigkeit 57%
Regen 0.00 inch
Schneehöhe Nicht verfügbar..
6:49 AM 5:26 PM
Erstes Viertel, 17% visible
METAR KFOA 120515Z AUTO 08004KT 10SM BKN080 OVC090 M03/M10 A3027 RMK AO2 T10271101
Druck 30.27 inch
Sichtweite 10.0 Meilen
Wolken Wolkig 8000 ft
Bedeckt 9000 ft
Windchill 22 °F
Taupunkt 14 °F
Feuchtigkeit 57%
Regen 0.00 inch
Schneehöhe Nicht verfügbar..
6:49 AM 5:26 PM
Erstes Viertel, 17% visible
METAR KFOA 120515Z AUTO 08004KT 10SM BKN080 OVC090 M03/M10 A3027 RMK AO2 T10271101

10-Day Weather Forecast

Almanac

Astronomie

Feb. 11, 2016 Aufgang Untergang
Genaue Zeit
Bürgerliche Dämmerung
Nautische Dämmerung
Astronomische Dämmerung
Mond
Länge des sichtbaren Lichts
Tageslänge
Tomorrow will be .
, % of the Moon is Illuminated

Heutige Rekorde

State Highs State Lows

Community

WunderPhotos

Upload Photos

1,892,268 Fotos hochgeladen!

WunderBlog® & News

Nearby

Luftqualität

  Luftqualität LQ Index Schadstoff
Not available.

Schneehöhe

Station Depth Höhe

Erdbebenaktivität

Stadt Distance Mag. Time & Date
Minimum magnitude displayed is 2.5.

küstennahe Wassertemperaturen

Ort Temperatur

Stations

Wetterstationen in der Umgebung

Stationsstandort Temp. Windchill Taupunkt Feuchtigkeit Wind Precip. Höhe Aktualisiert Art
                   

Watches & Warnings

There are currently no watches in effect.